Terminal Aerodrome Forecast
Issued by NWS Charleston, WV

Current Version | Previous Version | Text Only | Print | Product List | Glossary Off
Versions: 1 2 3 4 5 6 7 8 9 10 11 12 13 14 15 16 17 18 19 20 21 22 23 24

000
FTUS41 KRLX 291137
TAFEKN
TAF
KEKN 291137Z 2912/3012 00000KT 3/4SM BR BKN003
      TEMPO 2912/2913 5SM BR SCT004
     FM291300 00000KT 6SM BR FEW150
     FM291400 00000KT P6SM FEW150
     FM291800 25004KT P6SM BKN070
     FM300800 VRB03KT 6SM SHRA BR BKN035
     FM301100 00000KT P6SM BKN025=

USA.gov is the U.S. government's official web portal to all federal, state and local government web resources and services.